Time;durP1;ratioP1;P1;durP2;ratioP2;P2;SDS_P1;SDS_P2;PMS_P1;PMS_P2;Temp;Humidity;BMP_temperature;BMP_pressure;BME280_temperature;BME280_humidity;BME280_pressure;Samples;Min_cycle;Max_cycle;Signal;HPM_P1;HPM_P2
2023/12/07 00:02:14;;;;;;;529.72;91.75;;;-0.10;99.90;;;-1.76;100.00;101276.94;4919007;28;20039;-80
2023/12/07 00:04:40;;;;;;;540.42;87.05;;;-0.10;99.90;;;-1.74;100.00;101275.25;4920023;28;20406;-79
2023/12/07 00:07:06;;;;;;;584.38;87.97;;;-0.10;99.90;;;-1.76;100.00;101279.53;4926709;28;20052;-79
2023/12/07 00:09:32;;;;;;;592.53;88.30;;;-0.10;99.90;;;-1.77;100.00;101285.53;4931428;28;20111;-80
2023/12/07 00:11:57;;;;;;;539.03;87.50;;;0.00;99.90;;;-1.76;100.00;101276.94;4931735;28;20109;-79
2023/12/07 00:14:26;;;;;;;565.00;92.32;;;-0.10;99.90;;;-1.79;100.00;101270.03;4888656;28;20048;-81
2023/12/07 00:16:54;;;;;;;503.70;87.88;;;0.00;99.90;;;-1.75;100.00;101276.09;4919737;28;20706;-80
2023/12/07 00:19:19;;;;;;;569.80;88.65;;;-0.10;99.90;;;-1.74;100.00;101281.28;4908979;28;20039;-79
2023/12/07 00:21:45;;;;;;;590.17;90.53;;;-0.10;99.90;;;-1.76;100.00;101280.38;4912397;28;20022;-79
2023/12/07 00:24:11;;;;;;;617.72;88.40;;;0.00;99.90;;;-1.79;100.00;101277.78;4933043;28;20144;-80
2023/12/07 00:26:38;;;;;;;616.65;92.05;;;0.00;99.90;;;-1.78;100.00;101281.22;4922858;28;20370;-82
2023/12/07 00:29:12;;;;;;;511.10;90.05;;;-0.10;99.90;;;-1.76;100.00;101277.81;4910759;28;20085;-82
2023/12/07 00:31:38;;;;;;;588.67;90.45;;;-0.10;99.90;;;-1.78;100.00;101281.22;4922967;28;20026;-79
2023/12/07 00:34:04;;;;;;;606.13;91.45;;;-0.10;99.90;;;-1.80;100.00;101291.50;4924715;28;20097;-79
2023/12/07 00:36:30;;;;;;;560.03;90.05;;;-0.10;99.90;;;-1.82;100.00;101289.75;4899073;28;20042;-80
2023/12/07 00:39:04;;;;;;;615.63;91.07;;;-0.10;99.90;;;-1.82;100.00;101290.63;4926449;28;20045;-79
2023/12/07 00:41:30;;;;;;;545.97;85.13;;;-0.10;99.90;;;-1.85;100.00;101298.34;4884931;28;20043;-80
2023/12/07 00:43:56;;;;;;;608.65;84.22;;;-0.10;99.90;;;-1.87;100.00;101297.47;4920836;28;20643;-79
2023/12/07 00:46:22;;;;;;;607.88;92.05;;;-0.20;99.90;;;-1.88;100.00;101296.59;4911752;28;20113;-79
2023/12/07 00:48:56;;;;;;;592.08;87.85;;;-0.10;99.90;;;-1.87;100.00;101300.03;4902188;28;20030;-79
2023/12/07 00:51:25;;;;;;;610.20;89.30;;;-0.10;99.90;;;-1.88;100.00;101300.88;4948290;28;20050;-82
2023/12/07 00:53:51;;;;;;;562.85;88.00;;;-0.20;99.90;;;-1.91;100.00;101301.69;4935115;28;20031;-80
2023/12/07 00:56:21;;;;;;;680.70;94.82;;;-0.20;99.90;;;-1.88;100.00;101299.19;4913496;28;20424;-80
2023/12/07 00:58:47;;;;;;;680.83;98.32;;;-0.10;99.90;;;-1.84;100.00;101300.06;4925949;28;20047;-81
2023/12/07 01:01:13;;;;;;;635.67;97.70;;;-0.10;99.90;;;-1.81;100.00;101307.88;4905514;28;20398;-80
2023/12/07 01:03:40;;;;;;;667.80;91.80;;;-0.10;99.90;;;-1.78;100.00;101309.63;4951291;28;20048;-79
2023/12/07 01:06:07;;;;;;;645.55;93.07;;;-0.10;99.90;;;-1.80;100.00;101306.16;4938998;28;20058;-79
2023/12/07 01:08:38;;;;;;;703.92;93.07;;;-0.10;99.90;;;-1.80;100.00;101309.59;4930798;28;20616;-79
2023/12/07 01:11:05;;;;;;;710.33;98.00;;;-0.10;99.90;;;-1.75;100.00;101315.69;4909682;28;20085;-80
2023/12/07 01:13:33;;;;;;;687.42;95.07;;;-0.10;99.90;;;-1.73;100.00;101320.88;4932482;28;20120;-80
2023/12/07 01:15:59;;;;;;;720.60;100.55;;;-0.10;99.90;;;-1.76;100.00;101320.84;4910805;28;20042;-79
2023/12/07 01:18:30;;;;;;;748.30;100.25;;;0.00;99.90;;;-1.74;100.00;101321.72;4931698;28;20563;-79
2023/12/07 01:20:56;;;;;;;733.53;100.22;;;0.00;99.90;;;-1.71;100.00;101327.78;4927640;28;20045;-79
2023/12/07 01:23:21;;;;;;;810.50;104.00;;;0.00;99.90;;;-1.69;100.00;101332.97;4947312;28;20050;-80
2023/12/07 01:25:47;;;;;;;835.72;102.93;;;0.00;99.90;;;-1.67;100.00;101321.81;4921741;28;20045;-80
2023/12/07 01:28:15;;;;;;;905.40;105.88;;;0.00;99.90;;;-1.65;100.00;101327.84;4906645;28;20042;-80
2023/12/07 01:30:48;;;;;;;803.15;106.53;;;0.00;99.90;;;-1.62;100.00;101327.06;4904389;28;20047;-80
2023/12/07 01:33:14;;;;;;;762.80;101.38;;;0.10;99.90;;;-1.61;100.00;101323.63;4917193;28;20038;-80
2023/12/07 01:35:43;;;;;;;815.13;103.00;;;0.10;99.90;;;-1.58;100.00;101322.78;4903519;28;20421;-79
2023/12/07 01:38:14;;;;;;;714.63;101.75;;;0.10;99.90;;;-1.57;100.00;101322.81;4895897;28;20054;-79
2023/12/07 01:40:40;;;;;;;910.25;102.25;;;0.10;99.90;;;-1.56;100.00;101334.84;4920412;28;20023;-80
2023/12/07 01:43:05;;;;;;;843.03;102.60;;;0.10;99.90;;;-1.56;100.00;101334.00;4927661;28;20092;-78
2023/12/07 01:45:31;;;;;;;866.80;103.07;;;0.10;99.90;;;-1.57;100.00;101337.44;4900811;28;20052;-80
2023/12/07 01:47:59;;;;;;;898.60;96.85;;;0.10;99.90;;;-1.61;100.00;101339.09;4906683;28;20046;-81
2023/12/07 01:50:33;;;;;;;836.92;97.40;;;0.10;99.90;;;-1.64;100.00;101333.91;4953253;28;20535;-79
2023/12/07 01:53:02;;;;;;;830.90;98.10;;;0.10;99.90;;;-1.64;100.00;101328.75;4946928;28;20054;-79
2023/12/07 01:55:33;;;;;;;829.47;101.18;;;0.10;99.90;;;-1.66;100.00;101339.06;4883148;28;20069;-79
2023/12/07 01:58:02;;;;;;;952.13;109.45;;;;;;;-1.64;100.00;101339.09;4979556;28;20022;-80
2023/12/07 02:00:28;;;;;;;847.22;104.18;;;0.10;99.90;;;-1.62;100.00;101345.13;4943047;28;20147;-80
2023/12/07 02:02:54;;;;;;;800.33;102.28;;;0.10;99.90;;;-1.59;100.00;101352.91;4904681;28;20544;-82
2023/12/07 02:05:32;;;;;;;784.88;104.88;;;0.10;99.90;;;-1.56;100.00;101352.94;4899918;28;20520;-81
2023/12/07 02:07:58;;;;;;;794.00;95.85;;;0.10;99.90;;;-1.54;100.00;101352.97;4920222;28;20038;-79
2023/12/07 02:10:27;;;;;;;834.22;100.53;;;0.20;99.90;;;-1.55;100.00;101346.94;4911347;28;20026;-80
2023/12/07 02:12:55;;;;;;;735.42;104.63;;;0.10;99.90;;;-1.54;100.00;101351.25;4921228;28;20133;-83
2023/12/07 02:15:21;;;;;;;838.22;105.07;;;0.20;99.90;;;-1.52;100.00;101343.53;4918813;28;20046;-79
2023/12/07 02:18:04;;;;;;;894.78;102.25;;;0.20;99.90;;;-1.55;100.00;101357.28;4928278;28;20038;-79
2023/12/07 02:20:45;;;;;;;908.63;102.07;;;0.20;99.90;;;-1.54;100.00;101356.41;4914243;28;20054;-79
2023/12/07 02:23:21;;;;;;;881.30;103.07;;;0.20;99.90;;;-1.54;100.00;101358.13;4916874;28;20043;-80
2023/12/07 02:26:00;;;;;;;717.83;105.43;;;0.20;99.90;;;-1.53;100.00;101357.31;4938885;28;20370;-79
2023/12/07 02:28:26;;;;;;;971.08;105.95;;;0.20;99.90;;;-1.52;100.00;101354.72;4899094;28;20064;-79
2023/12/07 02:30:51;;;;;;;871.65;102.30;;;0.20;99.90;;;-1.52;100.00;101364.19;4900151;28;20034;-80
2023/12/07 02:33:17;;;;;;;838.03;104.38;;;0.20;99.90;;;-1.53;100.00;101368.50;4912340;28;20042;-81
2023/12/07 02:35:43;;;;;;;933.20;108.28;;;0.20;99.90;;;-1.51;100.00;101366.81;4949977;28;20038;-80
2023/12/07 02:38:16;;;;;;;897.65;107.05;;;0.20;99.90;;;-1.47;100.00;101370.28;4916163;28;20038;-79
2023/12/07 02:40:44;;;;;;;919.05;99.72;;;0.20;99.90;;;-1.49;100.00;101369.38;4926411;28;20089;-79
2023/12/07 02:43:11;;;;;;;953.17;104.88;;;0.20;99.90;;;-1.50;100.00;101368.53;4919080;28;20125;-79
2023/12/07 02:45:44;;;;;;;984.22;104.20;;;0.20;99.90;;;-1.54;100.00;101365.88;4904933;28;20042;-80
2023/12/07 02:48:10;;;;;;;1020.42;104.45;;;0.20;99.90;;;-1.55;100.00;101365.03;4907255;28;21101;-79
2023/12/07 02:50:36;;;;;;;948.40;106.80;;;0.20;99.90;;;-1.53;100.00;101371.06;4926171;28;20089;-79
2023/12/07 02:53:02;;;;;;;1087.50;108.15;;;-0.60;99.90;;;-1.52;100.00;101365.03;4928482;28;20041;-80
2023/12/07 02:55:36;;;;;;;944.40;106.95;;;0.20;99.90;;;-1.54;100.00;101368.47;4916247;28;20421;-80
2023/12/07 02:58:04;;;;;;;894.67;105.88;;;0.20;99.90;;;-1.54;100.00;101366.75;4918030;28;20043;-79
2023/12/07 03:00:30;;;;;;;950.58;106.63;;;0.20;99.90;;;-1.53;100.00;101358.16;4904226;28;20042;-80
2023/12/07 03:03:04;;;;;;;927.75;105.78;;;0.20;99.90;;;-1.49;100.00;101374.53;4920581;28;20054;-79
2023/12/07 03:05:32;;;;;;;826.67;107.05;;;0.20;99.90;;;-1.47;100.00;101366.00;4926702;28;20628;-81
2023/12/07 03:07:58;;;;;;;1089.80;104.78;;;0.20;99.90;;;-1.46;100.00;101375.47;4908207;28;20037;-79
2023/12/07 03:10:24;;;;;;;1109.70;110.90;;;0.30;99.90;;;-1.43;100.00;101376.34;4918662;28;20061;-79
2023/12/07 03:12:53;;;;;;;1123.00;106.28;;;;;;;-1.43;100.00;101379.81;4919646;28;20045;-80
2023/12/07 03:15:19;;;;;;;1164.63;109.47;;;0.20;99.90;;;-1.44;100.00;101375.50;4964195;28;20037;-79
2023/12/07 03:17:44;;;;;;;1060.93;112.68;;;0.30;99.90;;;-1.42;100.00;101375.53;4925871;28;20042;-80
2023/12/07 03:20:11;;;;;;;1035.05;108.68;;;0.30;99.90;;;-1.42;100.00;101376.38;4906237;28;20034;-80
2023/12/07 03:22:37;;;;;;;1290.68;109.88;;;0.30;99.90;;;-1.43;100.00;101382.38;4932376;28;20105;-79
2023/12/07 03:25:03;;;;;;;1359.25;114.68;;;0.30;99.90;;;-1.45;100.00;101374.63;4886984;28;20512;-82
2023/12/07 03:27:38;;;;;;;1121.35;111.20;;;0.30;99.90;;;-1.43;100.00;101381.53;4925899;28;20178;-81
2023/12/07 03:30:05;;;;;;;1175.35;110.63;;;0.30;99.90;;;-1.41;100.00;101392.75;4920745;28;20053;-80
2023/12/07 03:32:31;;;;;;;1060.82;111.28;;;0.30;99.90;;;-1.40;100.00;101389.28;4918880;28;20022;-79
2023/12/07 03:34:57;;;;;;;1002.80;108.25;;;0.30;99.90;;;-1.40;100.00;101395.34;4901491;28;20410;-79
2023/12/07 03:37:25;;;;;;;1329.70;118.47;;;0.30;99.90;;;-1.39;100.00;101391.91;4937889;28;20048;-80
2023/12/07 03:39:51;;;;;;;1305.60;122.28;;;0.30;99.90;;;-1.36;100.00;101398.81;4920684;28;20036;-79
2023/12/07 03:42:17;;;;;;;1337.32;120.20;;;0.30;99.90;;;-1.34;100.00;101399.72;4911676;28;20114;-80
2023/12/07 03:44:45;;;;;;;1399.50;125.40;;;0.30;99.90;;;-1.32;100.00;101403.19;4832031;29;20635;-82
2023/12/07 03:47:11;;;;;;;1283.88;117.18;;;0.30;99.90;;;-1.33;100.00;101398.88;4855004;29;20035;-80
2023/12/07 03:49:41;;;;;;;1325.93;118.15;;;0.40;99.90;;;-1.33;100.00;101411.81;4809835;29;20048;-79
2023/12/07 03:52:07;;;;;;;1432.45;120.10;;;0.40;99.90;;;-1.33;100.00;101410.09;4816141;29;20533;-80
2023/12/07 03:54:32;;;;;;;1420.25;114.93;;;0.30;99.90;;;-1.34;100.00;101412.63;4840484;29;20044;-82
2023/12/07 03:56:58;;;;;;;1281.03;113.10;;;0.40;99.90;;;-1.35;100.00;101404.03;4870950;28;20035;-79
2023/12/07 03:59:24;;;;;;;1365.82;117.32;;;0.40;99.90;;;-1.35;100.00;101405.75;4878281;28;20481;-79
2023/12/07 04:01:50;;;;;;;1273.20;101.28;;;0.30;99.90;;;-1.41;100.00;101408.25;4889873;28;20035;-81
2023/12/07 04:04:16;;;;;;;1408.15;114.60;;;;;;;-1.42;100.00;101403.94;4870085;28;20394;-80
2023/12/07 04:06:45;;;;;;;1269.95;110.43;;;0.30;99.90;;;-1.46;100.00;101409.03;4864741;28;21211;-81
2023/12/07 04:09:11;;;;;;;1345.07;107.65;;;0.30;99.90;;;-1.48;100.00;101408.16;4881341;28;20126;-80
2023/12/07 04:11:37;;;;;;;1251.32;109.93;;;0.20;99.90;;;-1.47;100.00;101409.00;4890565;29;20050;-79
2023/12/07 04:14:02;;;;;;;1391.13;110.05;;;0.20;99.90;;;-1.47;100.00;101406.44;4876777;28;20083;-82
2023/12/07 04:16:28;;;;;;;1326.20;112.90;;;0.20;99.90;;;-1.43;100.00;101409.94;4895435;28;20407;-80
2023/12/07 04:19:01;;;;;;;1595.63;120.72;;;0.20;99.90;;;-1.45;100.00;101405.63;4905410;28;20034;-80
2023/12/07 04:21:26;;;;;;;1576.00;117.93;;;0.30;99.90;;;-1.44;100.00;101403.91;4920289;28;20409;-80
2023/12/07 04:23:52;;;;;;;1558.93;119.00;;;0.30;99.90;;;-1.41;100.00;101408.25;4913977;28;20045;-80
2023/12/07 04:26:18;;;;;;;1321.75;118.25;;;0.30;99.90;;;-1.41;100.00;101403.06;4929013;28;20428;-80
2023/12/07 04:28:44;;;;;;;1522.70;122.20;;;0.30;99.90;;;-1.38;100.00;101411.75;4904568;28;20049;-81
2023/12/07 04:31:09;;;;;;;1127.63;111.03;;;0.30;99.90;;;-1.34;100.00;101407.47;4893556;28;20034;-79
2023/12/07 04:33:44;;;;;;;1351.25;116.10;;;0.30;99.90;;;-1.34;100.00;101405.78;4889074;28;20069;-80
2023/12/07 04:36:10;;;;;;;1618.93;119.75;;;0.30;99.90;;;-1.33;100.00;101404.06;4919505;28;20854;-80
2023/12/07 04:38:36;;;;;;;1710.60;124.07;;;0.30;99.90;;;-1.33;100.00;101409.22;4888619;28;20065;-80
2023/12/07 04:41:02;;;;;;;1683.60;123.13;;;0.40;99.90;;;-1.33;100.00;101416.97;4901350;28;20045;-80
2023/12/07 04:43:33;;;;;;;1576.35;116.55;;;0.30;99.90;;;-1.32;100.00;101418.69;4870938;28;20038;-81
2023/12/07 04:46:01;;;;;;;1762.70;122.13;;;0.40;99.90;;;-1.33;100.00;101423.00;4887257;28;20051;-78
2023/12/07 04:48:27;;;;;;;1764.18;120.57;;;0.40;99.90;;;-1.33;100.00;101423.00;4916938;28;20052;-80
2023/12/07 04:50:53;;;;;;;1596.88;114.88;;;0.40;99.90;;;-1.33;100.00;101427.31;4947380;28;20038;-81
2023/12/07 04:53:19;;;;;;;1627.03;122.32;;;0.30;99.90;;;-1.34;100.00;101431.63;4896558;28;20074;-79
2023/12/07 04:55:50;;;;;;;1843.95;124.50;;;0.40;99.90;;;-1.34;100.00;101429.03;4923462;28;20036;-80
2023/12/07 04:58:16;;;;;;;1596.03;121.25;;;0.40;99.90;;;-1.31;100.00;101435.94;4895751;28;20118;-79
2023/12/07 05:00:42;;;;;;;1864.10;129.90;;;1.40;99.90;;;-1.31;100.00;101431.63;4939804;28;20042;-80
2023/12/07 05:03:08;;;;;;;1734.93;122.72;;;0.40;99.90;;;-1.29;100.00;101429.94;4890629;28;20061;-79
2023/12/07 05:05:34;;;;;;;1654.40;120.25;;;0.40;99.90;;;-1.27;100.00;101430.84;4919252;28;20430;-80
2023/12/07 05:08:07;;;;;;;1882.00;125.43;;;0.40;99.90;;;-1.27;100.00;101436.00;4919079;28;20038;-79
2023/12/07 05:10:32;;;;;;;1795.93;122.90;;;0.40;99.90;;;-1.26;100.00;101432.56;4903695;28;20042;-80
2023/12/07 05:12:58;;;;;;;1823.13;124.45;;;0.40;99.90;;;-1.27;100.00;101433.41;4918458;28;20142;-79
2023/12/07 05:15:24;;;;;;;1815.55;124.20;;;0.40;99.90;;;-1.26;100.00;101435.16;4945569;28;20629;-81
2023/12/07 05:18:00;;;;;;;1999.90;131.50;;;0.40;99.90;;;-1.24;100.00;101435.16;4891033;28;20472;-80
2023/12/07 05:20:27;;;;;;;1986.22;125.53;;;0.40;99.90;;;-1.24;100.00;101440.34;4932612;28;20039;-79
2023/12/07 05:22:53;;;;;;;1999.90;132.40;;;0.50;99.90;;;-1.24;100.00;101443.78;4936598;28;20046;-79
2023/12/07 05:25:19;;;;;;;1722.13;123.60;;;0.50;99.90;;;-1.21;100.00;101448.13;4886302;28;20026;-79
2023/12/07 05:27:52;;;;;;;1836.18;129.18;;;0.50;99.90;;;-1.18;100.00;101450.75;4915420;28;20082;-80
2023/12/07 05:30:18;;;;;;;1981.85;130.55;;;0.50;99.90;;;-1.16;100.00;101449.06;4911453;28;20041;-80
2023/12/07 05:32:44;;;;;;;1999.90;135.38;;;0.50;99.90;;;-1.12;100.00;101452.56;4909824;28;20524;-81
2023/12/07 05:35:10;;;;;;;1976.70;129.98;;;0.50;99.90;;;-1.13;100.00;101454.25;4926181;28;20042;-81
2023/12/07 05:37:44;;;;;;;1999.90;133.48;;;0.50;99.90;;;-1.11;100.00;101443.97;4928369;28;20029;-80
2023/12/07 05:40:12;;;;;;;1999.90;136.30;;;0.60;99.90;;;-1.10;100.00;101446.56;4956782;28;20378;-81
2023/12/07 05:42:38;;;;;;;1947.60;127.97;;;0.60;99.90;;;-1.08;100.00;101447.47;4919996;28;20042;-79
2023/12/07 05:45:10;;;;;;;1921.10;133.20;;;0.60;99.90;;;-1.06;100.00;101456.09;4874617;28;20065;-82
2023/12/07 05:47:36;;;;;;;1999.90;135.77;;;0.60;99.90;;;-1.02;100.00;101456.13;4918836;28;20038;-81
2023/12/07 05:50:03;;;;;;;1819.95;131.27;;;0.60;99.90;;;-1.04;100.00;101445.75;4934617;28;20064;-80
2023/12/07 05:52:29;;;;;;;1967.40;125.97;;;0.60;99.90;;;-1.05;100.00;101455.25;4941369;28;20099;-80
2023/12/07 05:54:55;;;;;;;1547.03;128.43;;;0.60;99.90;;;-1.05;100.00;101460.41;4904266;28;20042;-80
2023/12/07 05:57:23;;;;;;;1957.65;131.20;;;0.60;99.90;;;-1.01;100.00;101465.63;4924571;28;20030;-80
2023/12/07 05:59:49;;;;;;;1713.50;124.57;;;0.60;99.90;;;-1.05;100.00;101463.00;4934662;28;20040;-80
2023/12/07 06:02:15;;;;;;;1999.90;140.48;;;0.60;99.90;;;-1.05;100.00;101468.16;4933613;28;20057;-81
2023/12/07 06:04:41;;;;;;;1999.90;129.55;;;0.60;99.90;;;-1.02;100.00;101474.22;4882365;28;20031;-80
2023/12/07 06:07:07;;;;;;;1999.90;127.60;;;0.60;99.90;;;-1.05;100.00;101475.91;4903066;28;20101;-79
2023/12/07 06:09:33;;;;;;;1996.68;127.78;;;0.60;99.90;;;-1.08;100.00;101475.00;4878801;28;20032;-83
2023/12/07 06:12:00;;;;;;;1953.00;122.78;;;0.60;99.90;;;-1.09;100.00;101478.44;4870326;29;20533;-80
2023/12/07 06:14:33;;;;;;;1999.90;129.40;;;0.60;99.90;;;-1.08;100.00;101478.47;4865317;28;20499;-80
2023/12/07 06:16:59;;;;;;;1999.90;133.07;;;0.60;99.90;;;-1.08;100.00;101470.72;4902656;28;20031;-79
2023/12/07 06:19:25;;;;;;;1980.13;129.90;;;0.60;99.90;;;-1.06;100.00;101479.38;4887611;28;20032;-81
2023/12/07 06:21:51;;;;;;;1999.90;137.82;;;0.60;99.90;;;-1.05;100.00;101473.34;4886074;28;20054;-80
2023/12/07 06:24:17;;;;;;;1999.90;128.05;;;0.60;99.90;;;-1.07;100.00;101477.63;4896829;28;20616;-80
2023/12/07 06:26:46;;;;;;;1999.90;133.63;;;0.60;99.90;;;-1.09;100.00;101474.13;4837505;29;20043;-82
2023/12/07 06:29:19;;;;;;;1999.90;134.57;;;0.60;99.90;;;-1.08;100.00;101475.88;4852616;28;20086;-82
2023/12/07 06:31:49;;;;;;;1999.90;129.30;;;0.60;99.90;;;-1.08;100.00;101475.88;4862938;29;20559;-80
2023/12/07 06:34:16;;;;;;;1999.90;135.13;;;0.60;99.90;;;-1.06;100.00;101478.47;4884185;28;20035;-81
2023/12/07 06:36:44;;;;;;;1999.90;130.68;;;0.60;99.90;;;-1.03;100.00;101481.13;4853360;28;20086;-81
2023/12/07 06:39:22;;;;;;;1999.90;136.23;;;0.60;99.90;;;-1.00;100.00;101482.88;4860157;28;20067;-80
2023/12/07 06:41:47;;;;;;;1999.90;129.45;;;0.60;99.90;;;-0.99;100.00;101487.19;4888857;28;20130;-80
2023/12/07 06:44:27;;;;;;;;;;;;;;;;;;;;;
2023/12/07 06:49:41;;;;;;;1963.30;124.20;;;0.70;99.90;;;-0.95;100.00;101486.38;4851343;28;20038;-81
2023/12/07 06:52:07;;;;;;;1999.90;121.35;;;0.70;99.90;;;-0.96;100.00;101479.47;4853994;28;20055;-81
2023/12/07 06:54:34;;;;;;;1997.47;123.78;;;0.70;99.90;;;-0.95;100.00;101484.69;4878527;28;20445;-83
2023/12/07 06:57:03;;;;;;;1999.90;136.00;;;0.70;99.90;;;-0.92;100.00;101484.69;4890718;28;20089;-81
2023/12/07 06:59:38;;;;;;;1589.13;118.22;;;0.80;99.90;;;-0.89;100.00;101495.06;4913648;28;20117;-80
2023/12/07 07:02:04;;;;;;;1879.60;123.32;;;0.80;99.90;;;-0.85;100.00;101498.56;4901494;28;20042;-82
2023/12/07 07:04:30;;;;;;;1999.90;128.55;;;0.80;99.90;;;-0.82;100.00;101490.88;4897883;28;20042;-80
2023/12/07 07:06:58;;;;;;;1999.90;130.60;;;0.80;99.90;;;-0.80;100.00;101493.47;4902293;28;20034;-79
2023/12/07 07:09:26;;;;;;;1999.90;129.52;;;0.80;99.90;;;-0.80;100.00;101499.50;4894353;28;20038;-80
2023/12/07 07:11:53;;;;;;;1999.90;136.18;;;0.80;99.90;;;-0.79;100.00;101496.06;4929450;28;20488;-81
2023/12/07 07:14:19;;;;;;;1999.90;127.05;;;0.90;99.90;;;-0.75;100.00;101500.44;4909144;28;20453;-79
2023/12/07 07:16:45;;;;;;;1895.07;128.13;;;0.90;99.90;;;-0.71;100.00;101506.53;4892705;28;20035;-78
2023/12/07 07:19:11;;;;;;;1608.13;117.15;;;0.90;99.90;;;-0.70;100.00;101506.50;4902669;28;20049;-80
2023/12/07 07:21:44;;;;;;;1685.35;120.65;;;1.00;99.90;;;-0.68;100.00;101504.81;4887920;29;20090;-82
2023/12/07 07:24:12;;;;;;;1999.90;128.32;;;1.00;99.90;;;-0.66;100.00;101505.72;4897215;28;20047;-81
2023/12/07 07:26:38;;;;;;;1999.90;128.20;;;1.00;99.90;;;-0.65;100.00;101497.13;4859404;29;20039;-81
2023/12/07 07:29:09;;;;;;;1877.18;120.78;;;1.00;99.90;;;-0.62;100.00;101502.31;4863594;28;20049;-80
2023/12/07 07:31:36;;;;;;;1890.63;127.28;;;1.00;99.90;;;-0.60;100.00;101501.44;4901625;28;20050;-82
2023/12/07 07:34:02;;;;;;;1714.75;123.53;;;1.00;99.90;;;-0.62;100.00;101497.13;4869836;28;20042;-82
2023/12/07 07:36:28;;;;;;;1988.18;124.22;;;1.10;99.90;;;-0.60;100.00;101504.03;4836428;29;20415;-83
2023/12/07 07:38:55;;;;;;;1878.03;120.75;;;1.10;99.90;;;-0.60;100.00;101499.75;4898631;28;20046;-82
2023/12/07 07:41:26;;;;;;;1999.90;124.78;;;1.00;99.90;;;-0.59;100.00;101498.03;4922827;28;20414;-80
2023/12/07 07:43:51;;;;;;;1999.90;125.20;;;1.10;99.90;;;-0.58;100.00;101502.34;4885008;28;20075;-80
2023/12/07 07:46:17;;;;;;;1768.75;120.55;;;1.10;99.90;;;-0.56;100.00;101501.53;4944101;28;20047;-79
2023/12/07 07:48:43;;;;;;;1988.45;126.78;;;1.10;99.90;;;-0.56;100.00;101498.94;4922096;28;20041;-82
2023/12/07 07:51:09;;;;;;;1837.93;124.22;;;1.10;99.90;;;-0.54;100.00;101505.00;4896635;28;20101;-80
2023/12/07 07:53:35;;;;;;;1970.45;126.85;;;1.10;99.90;;;-0.51;100.00;101511.91;4910418;28;20031;-79
2023/12/07 07:56:06;;;;;;;1641.85;122.47;;;1.10;99.90;;;-0.50;100.00;101508.47;4928205;28;20513;-80
2023/12/07 07:58:32;;;;;;;1999.90;126.38;;;1.20;99.90;;;-0.49;100.00;101518.84;4910344;28;20533;-80
2023/12/07 08:00:58;;;;;;;1851.63;123.43;;;1.20;99.90;;;-0.46;100.00;101520.59;4924552;28;20042;-82
2023/12/07 08:03:24;;;;;;;1938.03;124.95;;;1.20;99.90;;;-0.45;100.00;101520.63;4899455;28;20508;-80
2023/12/07 08:06:00;;;;;;;1999.90;135.63;;;1.20;99.90;;;-0.44;100.00;101521.47;4871550;28;20501;-79
2023/12/07 08:08:26;;;;;;;1924.35;131.75;;;1.20;99.90;;;-0.38;100.00;101520.69;4885843;28;20034;-80
2023/12/07 08:10:52;;;;;;;1817.70;124.60;;;1.30;99.90;;;-0.35;100.00;101520.72;4933388;28;20053;-82
2023/12/07 08:13:18;;;;;;;1999.90;172.10;;;1.30;99.90;;;-0.33;100.00;101514.69;4930516;28;20035;-83
2023/12/07 08:15:48;;;;;;;1986.03;145.45;;;1.30;99.90;;;-0.31;100.00;101523.34;4916927;28;20587;-81
2023/12/07 08:18:14;;;;;;;1941.70;122.72;;;1.30;99.90;;;-0.28;100.00;101525.09;4899429;28;20038;-79
2023/12/07 08:20:40;;;;;;;1984.28;126.85;;;1.30;99.90;;;-0.26;100.00;101519.09;4913633;28;20038;-79
2023/12/07 08:23:06;;;;;;;1263.45;109.25;;;1.40;99.90;;;-0.23;100.00;101521.72;4898035;28;20063;-80
2023/12/07 08:25:32;;;;;;;1552.10;116.60;;;1.40;99.90;;;-0.20;100.00;101526.06;4897366;28;20081;-82
2023/12/07 08:27:58;;;;;;;1744.80;122.45;;;1.40;99.90;;;-0.18;100.00;101529.53;4916220;28;21286;-79
2023/12/07 08:30:23;;;;;;;1896.15;125.47;;;1.50;99.90;;;-0.14;100.00;101535.63;4915906;28;20042;-81
2023/12/07 08:32:59;;;;;;;1884.28;122.93;;;1.50;99.90;;;-0.11;100.00;101536.53;4904790;28;20031;-80
2023/12/07 08:35:24;;;;;;;1715.30;114.95;;;1.50;99.90;;;-0.12;100.00;101528.72;4896413;28;20525;-80
2023/12/07 08:37:58;;;;;;;1912.93;119.60;;;1.50;99.90;;;-0.10;100.00;101534.78;4922898;28;20046;-79
2023/12/07 08:40:24;;;;;;;1600.82;115.07;;;1.50;99.90;;;-0.08;100.00;101530.50;4887727;28;20098;-81
2023/12/07 08:42:49;;;;;;;1700.10;117.95;;;1.60;99.90;;;-0.04;100.00;101540.03;4911165;28;20409;-79
2023/12/07 08:45:16;;;;;;;1165.88;107.88;;;1.60;99.90;;;-0.02;100.00;101541.78;4927820;28;20030;-79
2023/12/07 08:47:42;;;;;;;1520.90;116.50;;;1.60;99.90;;;0.01;100.00;101537.50;4917288;28;20121;-81
2023/12/07 08:50:09;;;;;;;1269.65;108.50;;;1.60;99.90;;;0.05;100.00;101547.03;4891641;28;20157;-80
2023/12/07 08:52:37;;;;;;;1353.22;114.13;;;1.70;99.90;;;0.08;100.00;101541.88;4884628;28;20533;-80
2023/12/07 08:55:03;;;;;;;1278.65;109.57;;;1.70;99.90;;;0.13;100.00;101540.19;4938661;28;20050;-81
2023/12/07 08:57:29;;;;;;;1219.97;104.20;;;1.70;99.90;;;0.16;100.00;101535.91;4915901;28;20042;-80
2023/12/07 08:59:55;;;;;;;1010.97;99.35;;;1.80;99.90;;;0.22;100.00;101545.47;4917165;28;20057;-80
2023/12/07 09:02:21;;;;;;;1172.25;100.60;;;1.80;99.90;;;0.25;100.00;101547.22;4944798;28;20042;-80
2023/12/07 09:04:49;;;;;;;1237.15;101.88;;;1.80;99.90;;;0.26;100.00;101547.22;4902562;28;20042;-80
2023/12/07 09:07:22;;;;;;;1315.28;100.07;;;1.90;99.90;;;0.30;100.00;101543.81;4908382;28;20463;-80
2023/12/07 09:09:48;;;;;;;1030.60;95.38;;;1.90;99.90;;;0.33;100.00;101554.19;4911855;28;20046;-82
2023/12/07 09:12:15;;;;;;;1026.82;91.93;;;1.90;99.90;;;0.35;100.00;101547.31;4923701;28;20681;-79
2023/12/07 09:14:46;;;;;;;952.35;86.78;;;1.90;99.90;;;0.40;100.00;101544.75;4921953;28;20045;-79
2023/12/07 09:17:15;;;;;;;1034.80;86.40;;;2.00;99.90;;;0.42;100.00;101552.53;4929590;28;20032;-80
2023/12/07 09:19:41;;;;;;;1167.63;90.70;;;2.00;99.90;;;0.44;100.00;101551.69;4907948;28;20026;-81
2023/12/07 09:22:07;;;;;;;757.47;79.70;;;2.00;99.90;;;0.45;100.00;101561.19;4887845;28;20109;-81
2023/12/07 09:24:38;;;;;;;914.63;86.78;;;2.00;99.90;;;0.50;100.00;101563.84;4950448;28;20472;-80
2023/12/07 09:27:07;;;;;;;1023.05;85.07;;;2.10;99.90;;;0.54;100.00;101563.00;4932523;28;20038;-81
2023/12/07 09:29:33;;;;;;;742.03;78.82;;;2.10;99.90;;;0.58;100.00;101565.66;4910772;28;20046;-80
2023/12/07 09:31:59;;;;;;;878.25;79.55;;;2.10;99.90;;;0.60;100.00;101569.13;4921234;28;20046;-80
2023/12/07 09:34:30;;;;;;;1299.35;90.03;;;2.20;99.90;;;0.61;100.00;101575.16;4886721;28;20619;-80
2023/12/07 09:37:17;;;;;;;1069.18;82.88;;;2.20;99.90;;;0.57;100.00;101579.44;4925191;28;20200;-79
2023/12/07 09:39:54;;;;;;;949.97;80.88;;;2.20;99.90;;;0.55;100.00;101583.75;4930752;28;20130;-82
2023/12/07 09:42:22;;;;;;;1077.72;81.50;;;2.10;99.90;;;0.51;100.00;101569.03;4950207;28;20027;-79
2023/12/07 09:44:57;;;;;;;965.85;79.57;;;2.10;99.90;;;0.52;100.00;101577.66;4925133;28;20090;-82
2023/12/07 09:47:28;;;;;;;1132.65;82.22;;;2.10;99.90;;;0.49;100.00;101570.72;4890082;28;20105;-81
2023/12/07 09:50:05;;;;;;;1185.78;82.38;;;2.10;99.90;;;0.49;100.00;101573.31;4905766;28;20574;-79
2023/12/07 09:52:31;;;;;;;1094.43;79.15;;;2.10;99.90;;;0.48;100.00;101576.78;4913907;28;20041;-80
2023/12/07 09:55:04;;;;;;;1116.38;80.40;;;2.10;99.90;;;0.45;100.00;101579.31;4894672;28;20396;-78